Conover, WI (54519)

7:21 PM CDT on August 30, 2016 (GMT -0500)
Spirit Lake | | Change Station

Elev 1657 ft 45.96 °N, 89.20 °W | Updated 13 minutes ago

Clear
Clear
67.3 °F
Feels Like 67.3 °F
N
1.7
Wind Variable Wind from North

Today
High -- | Low -- °F
--% Chance of Precip.
Yesterday
High -- | Low -- °F
Precip. -- in
Pressure 30.14 in
Visibility 10.0 miles
Clouds Clear
Dew Point 55 °F
Humidity 65%
Rainfall in
Snow Depth Not available.
6:15 AM 7:38 PM
Waning Crescent, 2% visible
METAR KLNL 310015Z AUTO 33005KT 10SM CLR 19/09 A3014 RMK AO2 T01850090
Pressure 30.14 in
Visibility 10.0 miles
Clouds Clear
Dew Point 55 °F
Humidity 65%
Rainfall in
Snow Depth Not available.
6:15 AM 7:38 PM
Waning Crescent, 2% visible
METAR KLNL 310015Z AUTO 33005KT 10SM CLR 19/09 A3014 RMK AO2 T01850090

10-Day Weather Forecast

Almanac

Astronomy

Aug. 30, 2016 Rise Set
Actual Time
Civil Twilight
Nautical Twilight
Astronomical Twilight
Moon
Length of Visible Light
Length of Day
Tomorrow will be .
, % of the Moon is Illuminated

Today's Extremes

State Highs State Lows

Community

WunderPhotos

Upload Photos

1,935,961 photos uploaded!

WunderBlog® & News

Nearby

Air Quality

  Air Quality AQ Index Pollutant
Not available.

Snow Depth

Station Depth Elevation

Earthquake Activity

City Distance Mag. Time & Date
Minimum magnitude displayed is 2.5.

Coastal Water Temperatures

Place Temperature

Stations

Nearby Weather Stations

Station Location Temp. Windchill Dew Point Humidity Wind Precip. Elev Updated Type
                   

Watches & Warnings

There are currently no watches in effect.